createdAt,value
2022-09-26T00:00:02.134Z,1003.97
2022-09-26T00:01:02.219Z,1003.96
2022-09-26T00:02:02.184Z,1003.95
2022-09-26T00:03:02.133Z,1003.88
2022-09-26T00:04:02.136Z,1003.92
2022-09-26T00:05:02.133Z,1003.92
2022-09-26T00:06:02.138Z,1003.91
2022-09-26T00:07:02.132Z,1003.95
2022-09-26T00:08:02.137Z,1003.90
2022-09-26T00:09:02.136Z,1003.89
2022-09-26T00:10:02.138Z,1003.88
2022-09-26T00:11:02.151Z,1003.89
2022-09-26T00:12:02.132Z,1003.88
2022-09-26T00:13:02.133Z,1003.89
2022-09-26T00:14:02.135Z,1003.87
2022-09-26T00:15:02.134Z,1003.89
2022-09-26T00:16:02.137Z,1003.87
2022-09-26T00:17:02.272Z,1003.91
2022-09-26T00:18:02.137Z,1003.90
2022-09-26T00:19:02.134Z,1003.92
2022-09-26T00:20:02.133Z,1003.89
2022-09-26T00:21:02.131Z,1003.88
2022-09-26T00:22:02.137Z,1003.84
2022-09-26T00:23:02.138Z,1003.86
2022-09-26T00:24:02.141Z,1003.88
2022-09-26T00:25:02.133Z,1003.87
2022-09-26T00:26:02.140Z,1003.84
2022-09-26T00:27:02.204Z,1003.81
2022-09-26T00:28:02.137Z,1003.82
2022-09-26T00:29:02.131Z,1003.78
2022-09-26T00:30:02.133Z,1003.79
2022-09-26T00:31:02.255Z,1003.78
2022-09-26T00:32:02.133Z,1003.76
2022-09-26T00:33:02.137Z,1003.73
2022-09-26T00:34:02.134Z,1003.74
2022-09-26T00:35:02.131Z,1003.71
2022-09-26T00:36:02.151Z,1003.68
2022-09-26T00:37:02.135Z,1003.72
2022-09-26T00:38:02.140Z,1003.69
2022-09-26T00:39:02.136Z,1003.73
2022-09-26T00:40:02.135Z,1003.69
2022-09-26T00:41:02.244Z,1003.68
2022-09-26T00:42:02.133Z,1003.67
2022-09-26T00:43:02.150Z,1003.71
2022-09-26T00:44:02.132Z,1003.68
2022-09-26T00:45:02.134Z,1003.72
2022-09-26T00:46:02.227Z,1003.74
2022-09-26T00:47:02.131Z,1003.70
2022-09-26T00:48:02.133Z,1003.65
2022-09-26T00:49:02.132Z,1003.66
2022-09-26T00:50:02.147Z,1003.69
2022-09-26T00:51:02.131Z,1003.70
2022-09-26T00:52:02.135Z,1003.70
2022-09-26T00:53:02.130Z,1003.71
2022-09-26T00:54:02.130Z,1003.72
2022-09-26T00:55:02.131Z,1003.72
2022-09-26T00:56:02.133Z,1003.66
2022-09-26T00:57:02.132Z,1003.68
2022-09-26T00:58:02.133Z,1003.66
2022-09-26T00:59:02.155Z,1003.64
2022-09-26T01:00:02.146Z,1003.64
2022-09-26T01:01:02.353Z,1003.59
2022-09-26T01:02:02.392Z,1003.64
2022-09-26T01:03:02.129Z,1003.60
2022-09-26T01:04:02.129Z,1003.58
2022-09-26T01:05:02.132Z,1003.56
2022-09-26T01:06:02.139Z,1003.57
2022-09-26T01:07:02.131Z,1003.55
2022-09-26T01:08:02.136Z,1003.54
2022-09-26T01:09:02.127Z,1003.56
2022-09-26T01:10:02.134Z,1003.60
2022-09-26T01:11:02.135Z,1003.56
2022-09-26T01:12:02.130Z,1003.54
2022-09-26T01:13:02.131Z,1003.55
2022-09-26T01:14:02.135Z,1003.53
2022-09-26T01:15:02.232Z,1003.53
2022-09-26T01:16:02.140Z,1003.52
2022-09-26T01:17:02.203Z,1003.52
2022-09-26T01:18:02.128Z,1003.49
2022-09-26T01:19:02.129Z,1003.51
2022-09-26T01:20:02.133Z,1003.52
2022-09-26T01:21:02.131Z,1003.45
2022-09-26T01:22:02.131Z,1003.43
2022-09-26T01:23:02.131Z,1003.45
2022-09-26T01:24:02.129Z,1003.49
2022-09-26T01:25:02.132Z,1003.42
2022-09-26T01:26:02.129Z,1003.41
2022-09-26T01:27:02.128Z,1003.39
2022-09-26T01:28:02.126Z,1003.38
2022-09-26T01:29:02.140Z,1003.38
2022-09-26T01:30:02.146Z,1003.37
2022-09-26T01:31:02.230Z,1003.37
2022-09-26T01:32:02.128Z,1003.34
2022-09-26T01:33:02.126Z,1003.33
2022-09-26T01:34:02.132Z,1003.33
2022-09-26T01:35:02.127Z,1003.31
2022-09-26T01:36:02.133Z,1003.33
2022-09-26T01:37:02.128Z,1003.27
2022-09-26T01:38:02.129Z,1003.28
2022-09-26T01:39:02.125Z,1003.29
2022-09-26T01:40:02.130Z,1003.21
2022-09-26T01:41:02.131Z,1003.25
2022-09-26T01:42:02.125Z,1003.23
2022-09-26T01:43:02.128Z,1003.22
2022-09-26T01:44:02.126Z,1003.26
2022-09-26T01:45:02.135Z,1003.26
2022-09-26T01:46:02.284Z,1003.23
2022-09-26T01:47:02.147Z,1003.25
2022-09-26T01:48:02.129Z,1003.27
2022-09-26T01:49:02.129Z,1003.25
2022-09-26T01:50:02.131Z,1003.21
2022-09-26T01:51:02.129Z,1003.25
2022-09-26T01:52:02.127Z,1003.27
2022-09-26T01:53:02.125Z,1003.29
2022-09-26T01:54:02.125Z,1003.30
2022-09-26T01:55:02.120Z,1003.28
2022-09-26T01:56:02.124Z,1003.26
2022-09-26T01:57:02.125Z,1003.24
2022-09-26T01:58:02.128Z,1003.24
2022-09-26T01:59:02.123Z,1003.24
2022-09-26T02:00:02.133Z,1003.22
2022-09-26T02:01:02.213Z,1003.17
2022-09-26T02:02:02.185Z,1003.19
2022-09-26T02:03:02.144Z,1003.16
2022-09-26T02:04:02.124Z,1003.17
2022-09-26T02:05:02.124Z,1003.17
2022-09-26T02:06:02.126Z,1003.11
2022-09-26T02:07:02.139Z,1003.12
2022-09-26T02:08:02.122Z,1003.13
2022-09-26T02:09:02.124Z,1003.13
2022-09-26T02:10:02.128Z,1003.11
2022-09-26T02:11:02.125Z,1003.12
2022-09-26T02:12:02.121Z,1003.09
2022-09-26T02:13:02.125Z,1003.11
2022-09-26T02:14:02.126Z,1003.09
2022-09-26T02:15:02.124Z,1003.12
2022-09-26T02:16:02.287Z,1003.07
2022-09-26T02:17:02.217Z,1003.05
2022-09-26T02:18:02.125Z,1003.05
2022-09-26T02:19:02.138Z,1003.02
2022-09-26T02:20:02.121Z,1003.01
2022-09-26T02:21:02.124Z,1003.00
2022-09-26T02:22:02.134Z,1002.97
2022-09-26T02:23:02.122Z,1002.96
2022-09-26T02:24:02.122Z,1002.94
2022-09-26T02:25:02.120Z,1002.94
2022-09-26T02:26:02.120Z,1002.89
2022-09-26T02:27:02.170Z,1002.89
2022-09-26T02:28:02.118Z,1002.88
2022-09-26T02:29:02.119Z,1002.89
2022-09-26T02:30:02.128Z,1002.87
2022-09-26T02:31:02.117Z,1002.88
2022-09-26T02:32:02.171Z,1002.92
2022-09-26T02:33:02.117Z,1002.89
2022-09-26T02:34:02.121Z,1002.89
2022-09-26T02:35:02.135Z,1002.87
2022-09-26T02:36:02.117Z,1002.84
2022-09-26T02:37:02.115Z,1002.78
2022-09-26T02:38:02.126Z,1002.76
2022-09-26T02:39:02.118Z,1002.75
2022-09-26T02:40:02.120Z,1002.73
2022-09-26T02:41:02.118Z,1002.74
2022-09-26T02:42:02.118Z,1002.76
2022-09-26T02:43:02.128Z,1002.80
2022-09-26T02:44:02.119Z,1002.76
2022-09-26T02:45:02.121Z,1002.78
2022-09-26T02:46:02.278Z,1002.77
2022-09-26T02:47:02.117Z,1002.79
2022-09-26T02:48:02.115Z,1002.81
2022-09-26T02:49:02.121Z,1002.81
2022-09-26T02:50:02.115Z,1002.80
2022-09-26T02:51:02.135Z,1002.79
2022-09-26T02:52:02.116Z,1002.77
2022-09-26T02:53:02.117Z,1002.75
2022-09-26T02:54:02.115Z,1002.72
2022-09-26T02:55:02.122Z,1002.73
2022-09-26T02:56:02.115Z,1002.74
2022-09-26T02:57:02.117Z,1002.71
2022-09-26T02:58:02.115Z,1002.70
2022-09-26T02:59:02.114Z,1002.73
2022-09-26T03:00:02.115Z,1002.68
2022-09-26T03:01:02.213Z,1002.66
2022-09-26T03:02:02.120Z,1002.61
2022-09-26T03:03:02.109Z,1002.65
2022-09-26T03:04:02.118Z,1002.63
2022-09-26T03:05:02.188Z,1002.61
2022-09-26T03:06:02.114Z,1002.61
2022-09-26T03:07:02.146Z,1002.58
2022-09-26T03:08:02.110Z,1002.61
2022-09-26T03:09:02.122Z,1002.59
2022-09-26T03:10:02.119Z,1002.60
2022-09-26T03:11:02.109Z,1002.52
2022-09-26T03:12:02.119Z,1002.59
2022-09-26T03:13:02.108Z,1002.55
2022-09-26T03:14:02.118Z,1002.56
2022-09-26T03:15:02.111Z,1002.53
2022-09-26T03:16:02.164Z,1002.53
2022-09-26T03:17:02.105Z,1002.54
2022-09-26T03:18:02.108Z,1002.52
2022-09-26T03:19:02.108Z,1002.54
2022-09-26T03:20:02.105Z,1002.52
2022-09-26T03:21:02.114Z,1002.53
2022-09-26T03:22:02.119Z,1002.50
2022-09-26T03:23:02.129Z,1002.49
2022-09-26T03:24:02.115Z,1002.48
2022-09-26T03:25:02.108Z,1002.50
2022-09-26T03:26:02.122Z,1002.49
2022-09-26T03:27:02.159Z,1002.49
2022-09-26T03:28:02.115Z,1002.42
2022-09-26T03:29:02.110Z,1002.46
2022-09-26T03:30:02.111Z,1002.48
2022-09-26T03:31:02.104Z,1002.48
2022-09-26T03:32:02.262Z,1002.45
2022-09-26T03:33:02.105Z,1002.47
2022-09-26T03:34:02.139Z,1002.42
2022-09-26T03:35:02.113Z,1002.43
2022-09-26T03:36:02.106Z,1002.41
2022-09-26T03:37:02.109Z,1002.41
2022-09-26T03:38:02.108Z,1002.41
2022-09-26T03:39:02.129Z,1002.37
2022-09-26T03:40:02.113Z,1002.40
2022-09-26T03:41:02.339Z,1002.43
2022-09-26T03:42:02.104Z,1002.42
2022-09-26T03:43:02.112Z,1002.40
2022-09-26T03:44:02.102Z,1002.41
2022-09-26T03:45:02.111Z,1002.42
2022-09-26T03:46:02.207Z,1002.40
2022-09-26T03:47:02.107Z,1002.38
2022-09-26T03:48:02.125Z,1002.37
2022-09-26T03:49:02.105Z,1002.35
2022-09-26T03:50:02.113Z,1002.34
2022-09-26T03:51:02.100Z,1002.39
2022-09-26T03:52:02.105Z,1002.39
2022-09-26T03:53:02.104Z,1002.35
2022-09-26T03:54:02.103Z,1002.38
2022-09-26T03:55:02.125Z,1002.33
2022-09-26T03:56:02.103Z,1002.35
2022-09-26T03:57:02.109Z,1002.37
2022-09-26T03:58:02.106Z,1002.39
2022-09-26T03:59:02.101Z,1002.37
2022-09-26T04:00:02.141Z,1002.38
2022-09-26T04:01:02.201Z,1002.36
2022-09-26T04:02:02.229Z,1002.30
2022-09-26T04:03:02.115Z,1002.32
2022-09-26T04:04:02.115Z,1002.32
2022-09-26T04:05:02.102Z,1002.33
2022-09-26T04:06:02.098Z,1002.34
2022-09-26T04:07:02.113Z,1002.30
2022-09-26T04:08:02.102Z,1002.30
2022-09-26T04:09:02.107Z,1002.27
2022-09-26T04:10:02.112Z,1002.29
2022-09-26T04:11:02.117Z,1002.28
2022-09-26T04:12:02.110Z,1002.32
2022-09-26T04:13:02.106Z,1002.31
2022-09-26T04:14:02.106Z,1002.26
2022-09-26T04:15:02.114Z,1002.26
2022-09-26T04:16:02.203Z,1002.25
2022-09-26T04:17:02.118Z,1002.23
2022-09-26T04:18:02.119Z,1002.22
2022-09-26T04:19:02.109Z,1002.18
2022-09-26T04:20:02.114Z,1002.22
2022-09-26T04:21:03.997Z,1002.23
2022-09-26T04:22:02.092Z,1002.22
2022-09-26T04:23:02.106Z,1002.27
2022-09-26T04:24:02.116Z,1002.21
2022-09-26T04:25:02.101Z,1002.18
2022-09-26T04:26:02.092Z,1002.12
2022-09-26T04:27:02.142Z,1002.11
2022-09-26T04:28:02.093Z,1002.10
2022-09-26T04:29:02.092Z,1002.11
2022-09-26T04:30:02.095Z,1002.07
2022-09-26T04:31:02.091Z,1002.04
2022-09-26T04:32:02.173Z,1002.04
2022-09-26T04:33:02.091Z,1002.06
2022-09-26T04:34:02.087Z,1002.06
2022-09-26T04:35:02.096Z,1002.03
2022-09-26T04:36:02.094Z,1002.04
2022-09-26T04:37:02.088Z,1002.03
2022-09-26T04:38:02.092Z,1002.08
2022-09-26T04:39:02.092Z,1002.11
2022-09-26T04:40:02.087Z,1002.12
2022-09-26T04:41:02.231Z,1002.10
2022-09-26T04:42:02.093Z,1002.12
2022-09-26T04:43:02.210Z,1002.09
2022-09-26T04:44:02.086Z,1002.14
2022-09-26T04:45:02.087Z,1002.09
2022-09-26T04:46:02.134Z,1002.08
2022-09-26T04:47:02.088Z,1002.12
2022-09-26T04:48:02.086Z,1002.13
2022-09-26T04:49:02.089Z,1002.10
2022-09-26T04:50:02.086Z,1002.13
2022-09-26T04:51:02.085Z,1002.07
2022-09-26T04:52:02.083Z,1002.07
2022-09-26T04:53:02.085Z,1002.09
2022-09-26T04:54:02.088Z,1002.04
2022-09-26T04:55:02.084Z,1002.05
2022-09-26T04:56:02.085Z,1002.04
2022-09-26T04:57:02.084Z,1002.01
2022-09-26T04:58:02.085Z,1002.03
2022-09-26T04:59:02.197Z,1002.07
2022-09-26T05:00:02.085Z,1002.02
2022-09-26T05:01:02.169Z,1002.00
2022-09-26T05:02:02.153Z,1002.01
2022-09-26T05:03:02.084Z,1002.01
2022-09-26T05:04:02.080Z,1001.99
2022-09-26T05:05:02.082Z,1002.01
2022-09-26T05:06:02.080Z,1001.98
2022-09-26T05:07:02.083Z,1001.99
2022-09-26T05:08:02.086Z,1001.99
2022-09-26T05:09:02.083Z,1001.98
2022-09-26T05:10:02.079Z,1001.98
2022-09-26T05:11:02.080Z,1001.95
2022-09-26T05:12:02.084Z,1001.98
2022-09-26T05:13:02.096Z,1001.94
2022-09-26T05:14:02.080Z,1001.95
2022-09-26T05:15:02.101Z,1001.97
2022-09-26T05:16:02.123Z,1002.00
2022-09-26T05:17:02.076Z,1002.00
2022-09-26T05:18:02.072Z,1002.00
2022-09-26T05:19:02.075Z,1001.97
2022-09-26T05:20:02.076Z,1002.01
2022-09-26T05:21:02.076Z,1001.96
2022-09-26T05:22:02.076Z,1001.97
2022-09-26T05:23:02.077Z,1001.97
2022-09-26T05:24:02.073Z,1001.92
2022-09-26T05:25:02.076Z,1001.96
2022-09-26T05:26:02.078Z,1001.95
2022-09-26T05:27:02.076Z,1001.97
2022-09-26T05:28:02.135Z,1001.92
2022-09-26T05:29:07.712Z,1001.92
2022-09-26T05:30:02.079Z,1001.95
2022-09-26T05:31:02.095Z,1001.98
2022-09-26T05:32:02.149Z,1001.99
2022-09-26T05:33:02.074Z,1002.01
2022-09-26T05:34:02.071Z,1002.01
2022-09-26T05:35:02.068Z,1002.01
2022-09-26T05:36:02.084Z,1002.04
2022-09-26T05:37:02.069Z,1002.01
2022-09-26T05:38:02.075Z,1002.03
2022-09-26T05:39:02.069Z,1002.02
2022-09-26T05:40:02.069Z,1001.99
2022-09-26T05:41:02.169Z,1001.99
2022-09-26T05:42:02.068Z,1001.95
2022-09-26T05:43:02.069Z,1002.00
2022-09-26T05:44:02.067Z,1002.02
2022-09-26T05:45:02.073Z,1001.97
2022-09-26T05:46:02.075Z,1002.01
2022-09-26T05:47:02.283Z,1002.00
2022-09-26T05:48:02.068Z,1001.99
2022-09-26T05:49:02.065Z,1001.99
2022-09-26T05:50:02.121Z,1002.01
2022-09-26T05:51:02.066Z,1002.06
2022-09-26T05:52:02.065Z,1002.03
2022-09-26T05:53:02.066Z,1002.02
2022-09-26T05:54:02.066Z,1001.97
2022-09-26T05:55:02.066Z,1002.03
2022-09-26T05:56:02.066Z,1002.00
2022-09-26T05:57:02.084Z,1002.00
2022-09-26T05:58:02.062Z,1002.06
2022-09-26T05:59:02.063Z,1002.01
2022-09-26T06:00:02.062Z,1002.02
2022-09-26T06:01:02.155Z,1002.04
2022-09-26T06:02:02.164Z,1002.09
2022-09-26T06:03:02.086Z,1002.09
2022-09-26T06:04:02.060Z,1002.11
2022-09-26T06:05:02.059Z,1002.08
2022-09-26T06:06:02.065Z,1002.06
2022-09-26T06:07:02.060Z,1002.07
2022-09-26T06:08:02.057Z,1002.06
2022-09-26T06:09:02.062Z,1002.07
2022-09-26T06:10:02.073Z,1002.07
2022-09-26T06:11:02.059Z,1002.08
2022-09-26T06:12:02.054Z,1002.08
2022-09-26T06:13:02.058Z,1002.09
2022-09-26T06:14:02.058Z,1002.07
2022-09-26T06:15:02.059Z,1002.07
2022-09-26T06:16:02.111Z,1002.07
2022-09-26T06:17:02.058Z,1002.07
2022-09-26T06:18:02.062Z,1002.05
2022-09-26T06:19:02.160Z,1002.04
2022-09-26T06:20:02.064Z,1002.00
2022-09-26T06:21:02.053Z,1002.00
2022-09-26T06:22:02.055Z,1002.01
2022-09-26T06:23:02.060Z,1002.00
2022-09-26T06:24:02.061Z,1001.99
2022-09-26T06:25:02.052Z,1001.97
2022-09-26T06:26:02.055Z,1001.97
2022-09-26T06:27:02.060Z,1001.99
2022-09-26T06:28:02.049Z,1002.03
2022-09-26T06:29:02.050Z,1001.99
2022-09-26T06:30:02.051Z,1002.02
2022-09-26T06:31:02.051Z,1002.03
2022-09-26T06:32:02.113Z,1002.03
2022-09-26T06:33:02.060Z,1002.03
2022-09-26T06:34:02.054Z,1002.03
2022-09-26T06:35:02.068Z,1002.02
2022-09-26T06:36:02.053Z,1002.05
2022-09-26T06:37:02.052Z,1002.02
2022-09-26T06:38:02.051Z,1002.03
2022-09-26T06:39:02.051Z,1001.97
2022-09-26T06:40:02.044Z,1001.98
2022-09-26T06:41:02.106Z,1001.98
2022-09-26T06:42:02.047Z,1001.96
2022-09-26T06:43:02.048Z,1001.95
2022-09-26T06:44:02.051Z,1001.90
2022-09-26T06:45:02.049Z,1001.86
2022-09-26T06:46:02.070Z,1001.90
2022-09-26T06:47:02.123Z,1001.89
2022-09-26T06:48:02.052Z,1001.84
2022-09-26T06:49:02.045Z,1001.87
2022-09-26T06:50:02.045Z,1001.87
2022-09-26T06:51:02.147Z,1001.82
2022-09-26T06:52:02.049Z,1001.84
2022-09-26T06:53:11.980Z,1001.82
2022-09-26T06:54:02.041Z,1001.83
2022-09-26T06:55:02.048Z,1001.84
2022-09-26T06:56:02.045Z,1001.80
2022-09-26T06:57:02.056Z,1001.86
2022-09-26T06:58:02.055Z,1001.80
2022-09-26T06:59:02.052Z,1001.83
2022-09-26T07:00:02.049Z,1001.84
2022-09-26T07:01:02.241Z,1001.85
2022-09-26T07:02:02.219Z,1001.79
2022-09-26T07:03:02.042Z,1001.84
2022-09-26T07:04:02.068Z,1001.86
2022-09-26T07:05:02.045Z,1001.82
2022-09-26T07:06:02.037Z,1001.85
2022-09-26T07:07:02.065Z,1001.86
2022-09-26T07:08:02.039Z,1001.88
2022-09-26T07:09:12.752Z,1001.82
2022-09-26T07:10:02.035Z,1001.81
2022-09-26T07:11:27.902Z,1001.85
2022-09-26T07:12:16.416Z,1001.86
2022-09-26T07:13:02.041Z,1001.84
2022-09-26T07:14:02.336Z,1001.88
2022-09-26T07:15:02.041Z,1001.82
2022-09-26T07:16:02.051Z,1001.81
2022-09-26T07:17:02.044Z,1001.84
2022-09-26T07:18:02.040Z,1001.82
2022-09-26T07:19:02.037Z,1001.81
2022-09-26T07:20:02.040Z,1001.83
2022-09-26T07:21:02.040Z,1001.80
2022-09-26T07:22:02.040Z,1001.81
2022-09-26T07:23:02.173Z,1001.78
2022-09-26T07:24:02.040Z,1001.80
2022-09-26T07:25:02.041Z,1001.82
2022-09-26T07:26:02.038Z,1001.82
2022-09-26T07:27:02.037Z,1001.83
2022-09-26T07:28:02.043Z,1001.84
2022-09-26T07:29:02.037Z,1001.76
2022-09-26T07:30:02.035Z,1001.81
2022-09-26T07:31:02.151Z,1001.81
2022-09-26T07:32:02.142Z,1001.81
2022-09-26T07:33:02.048Z,1001.81
2022-09-26T07:34:02.042Z,1001.88
2022-09-26T07:35:02.038Z,1001.83
2022-09-26T07:36:05.449Z,1001.92
2022-09-26T07:37:02.041Z,1001.97
2022-09-26T07:38:02.044Z,1002.02
2022-09-26T07:39:02.057Z,1002.08
2022-09-26T07:40:02.194Z,1002.17
2022-09-26T07:41:02.130Z,1002.04
2022-09-26T07:42:02.040Z,1001.82
2022-09-26T07:43:19.105Z,1001.78
2022-09-26T07:44:53.344Z,1001.73
2022-09-26T07:46:02.050Z,1001.65
2022-09-26T07:47:02.116Z,1001.66
2022-09-26T07:48:02.042Z,1001.78
2022-09-26T07:49:02.041Z,1001.88
2022-09-26T07:50:02.043Z,1001.63
2022-09-26T07:51:06.944Z,1001.57
2022-09-26T07:52:02.042Z,1001.61
2022-09-26T07:53:02.043Z,1001.61
2022-09-26T07:54:02.045Z,1001.72
2022-09-26T07:55:02.061Z,1001.79
2022-09-26T07:56:02.050Z,1001.70
2022-09-26T07:57:02.045Z,1001.82
2022-09-26T07:58:02.048Z,1002.05
2022-09-26T07:59:02.041Z,1001.92
2022-09-26T08:00:02.051Z,1001.88
2022-09-26T08:01:02.049Z,1001.74
2022-09-26T08:02:02.285Z,1001.79
2022-09-26T08:03:02.112Z,1001.72
2022-09-26T08:04:02.050Z,1001.71
2022-09-26T08:05:02.049Z,1001.64
2022-09-26T08:06:02.050Z,1001.71
2022-09-26T08:07:02.057Z,1001.66
2022-09-26T08:08:02.053Z,1001.76
2022-09-26T08:09:02.059Z,1001.73
2022-09-26T08:10:02.056Z,1001.67
2022-09-26T08:11:04.201Z,1001.64
2022-09-26T08:12:02.057Z,1001.86
2022-09-26T08:13:02.058Z,1001.71
2022-09-26T08:14:02.052Z,1001.73
2022-09-26T08:15:02.055Z,1002.02
2022-09-26T08:16:02.137Z,1001.76
2022-09-26T08:17:02.069Z,1001.75
2022-09-26T08:18:02.060Z,1001.76
2022-09-26T08:19:02.059Z,1002.02
2022-09-26T08:20:02.068Z,1002.00
2022-09-26T08:21:02.059Z,1001.98
2022-09-26T08:22:02.059Z,1001.90
2022-09-26T08:23:02.062Z,1001.75
2022-09-26T08:24:02.065Z,1001.82
2022-09-26T08:25:02.066Z,1002.16
2022-09-26T08:26:02.068Z,1002.13
2022-09-26T08:27:02.094Z,1002.03
2022-09-26T08:28:02.070Z,1001.87
2022-09-26T08:29:02.093Z,1001.93
2022-09-26T08:30:02.099Z,1001.93
2022-09-26T08:31:02.158Z,1001.96
2022-09-26T08:32:02.074Z,1002.09
2022-09-26T08:33:02.071Z,1001.87
2022-09-26T08:34:02.075Z,1002.04
2022-09-26T08:35:02.092Z,1001.96
2022-09-26T08:36:02.076Z,1001.84
2022-09-26T08:37:02.082Z,1001.81
2022-09-26T08:38:02.078Z,1001.89
2022-09-26T08:39:02.079Z,1001.89
2022-09-26T08:40:02.082Z,1001.85
2022-09-26T08:41:02.178Z,1002.23
2022-09-26T08:42:02.087Z,1002.84
2022-09-26T08:43:02.215Z,1003.11
2022-09-26T08:44:02.086Z,1003.18
2022-09-26T08:45:02.088Z,1003.18
2022-09-26T08:46:02.155Z,1003.22
2022-09-26T08:47:02.245Z,1002.81
2022-09-26T08:48:02.091Z,1003.69
2022-09-26T08:49:02.095Z,1003.75
2022-09-26T08:50:02.154Z,1003.75
2022-09-26T08:51:02.103Z,1003.72
2022-09-26T08:52:02.102Z,1003.74
2022-09-26T08:53:02.104Z,1001.81
2022-09-26T08:54:02.111Z,1003.58
2022-09-26T08:55:02.120Z,1003.48
2022-09-26T08:56:02.118Z,1003.35
2022-09-26T08:57:02.120Z,1003.37
2022-09-26T08:58:02.127Z,1002.74
2022-09-26T08:59:02.145Z,1001.91
2022-09-26T09:00:02.131Z,1003.25
2022-09-26T09:01:02.149Z,1003.25
2022-09-26T09:02:02.208Z,1001.65
2022-09-26T09:03:02.329Z,1001.58
2022-09-26T09:04:02.152Z,1001.58
2022-09-26T09:05:02.155Z,1001.64
2022-09-26T09:06:02.159Z,1001.53
2022-09-26T09:07:02.160Z,1001.61
2022-09-26T09:08:02.167Z,1003.27
2022-09-26T09:09:02.174Z,1003.38
2022-09-26T09:10:02.174Z,1001.95
2022-09-26T09:11:02.179Z,1001.60
2022-09-26T09:12:02.183Z,1001.51
2022-09-26T09:13:02.197Z,1001.31
2022-09-26T09:14:02.198Z,1001.34
2022-09-26T09:15:23.964Z,1002.53
2022-09-26T09:16:02.279Z,1001.76
2022-09-26T09:17:02.209Z,1003.16
2022-09-26T09:18:02.218Z,1003.29
2022-09-26T09:19:02.222Z,1003.08
2022-09-26T09:20:02.231Z,1003.02
2022-09-26T09:21:02.227Z,1002.92
2022-09-26T09:22:02.249Z,1002.92
2022-09-26T09:23:02.247Z,1002.87
2022-09-26T09:24:02.277Z,1001.34
2022-09-26T09:25:02.255Z,1001.44
2022-09-26T09:28:08.072Z,1001.28
2022-09-26T09:29:02.279Z,1001.25
2022-09-26T09:30:03.241Z,1001.28
2022-09-26T09:31:02.445Z,1001.31
2022-09-26T09:32:02.301Z,1001.81
2022-09-26T09:33:02.301Z,1001.38
2022-09-26T09:34:02.314Z,1001.32
2022-09-26T09:35:02.329Z,1001.36
2022-09-26T09:36:02.343Z,1001.26
2022-09-26T09:37:02.330Z,1001.36
2022-09-26T09:38:02.335Z,1001.36
2022-09-26T09:39:02.341Z,1002.46
2022-09-26T09:40:02.345Z,1002.67
2022-09-26T09:41:02.498Z,1001.42
2022-09-26T09:42:02.355Z,1002.55
2022-09-26T09:43:02.355Z,1002.55
2022-09-26T09:44:02.370Z,1001.25
2022-09-26T09:45:02.377Z,1001.14
2022-09-26T09:46:02.475Z,1001.24
2022-09-26T09:47:02.528Z,1001.22
2022-09-26T09:48:02.391Z,1001.61
2022-09-26T09:49:02.400Z,1002.90
2022-09-26T09:50:02.406Z,1001.39
2022-09-26T09:51:02.412Z,1001.32
2022-09-26T09:52:02.413Z,1001.26
2022-09-26T09:53:02.420Z,1002.35
2022-09-26T09:54:02.432Z,1001.21
2022-09-26T09:55:02.432Z,1001.13
2022-09-26T09:56:02.444Z,1001.09
2022-09-26T09:57:02.449Z,1002.42
2022-09-26T09:58:02.453Z,1001.02
2022-09-26T09:59:02.461Z,1000.96
2022-09-26T10:00:02.595Z,1000.94
2022-09-26T10:01:02.467Z,1001.02
2022-09-26T10:02:02.477Z,1000.97
2022-09-26T10:03:02.624Z,1001.04
2022-09-26T10:04:02.490Z,1001.02
2022-09-26T10:05:02.501Z,1001.04
2022-09-26T10:06:02.496Z,1000.90
2022-09-26T10:07:02.503Z,1000.90
2022-09-26T10:08:02.508Z,1000.99
2022-09-26T10:09:35.975Z,1000.83
2022-09-26T10:10:02.518Z,1000.85
2022-09-26T10:11:02.520Z,1000.85
2022-09-26T10:12:02.529Z,1001.28
2022-09-26T10:13:02.531Z,1000.96
2022-09-26T10:14:02.543Z,1000.96
2022-09-26T10:15:02.537Z,1000.94
2022-09-26T10:16:02.603Z,1000.79
2022-09-26T10:17:02.544Z,1002.12
2022-09-26T10:18:23.438Z,1002.11
2022-09-26T10:19:03.822Z,1002.25
2022-09-26T10:20:02.559Z,1002.17
2022-09-26T10:21:02.560Z,1002.14
2022-09-26T10:22:02.573Z,1000.84
2022-09-26T10:23:02.568Z,1000.81
2022-09-26T10:24:02.572Z,1002.31
2022-09-26T10:25:02.576Z,1002.17
2022-09-26T10:26:02.583Z,1002.15
2022-09-26T10:27:02.582Z,1002.24
2022-09-26T10:28:02.591Z,1002.19
2022-09-26T10:29:02.591Z,1000.82
2022-09-26T10:30:02.603Z,1001.24
2022-09-26T10:31:02.670Z,1002.12
2022-09-26T10:32:02.610Z,1002.03
2022-09-26T10:33:02.618Z,1001.90
2022-09-26T10:34:02.616Z,1001.97
2022-09-26T10:35:02.645Z,1002.01
2022-09-26T10:36:02.641Z,1001.94
2022-09-26T10:37:02.628Z,1001.90
2022-09-26T10:38:02.635Z,1001.90
2022-09-26T10:39:02.640Z,1001.90
2022-09-26T10:40:02.649Z,1001.83
2022-09-26T10:41:02.687Z,1001.01
2022-09-26T10:42:02.660Z,1001.33
2022-09-26T10:43:02.663Z,1001.16
2022-09-26T10:44:02.668Z,1001.19
2022-09-26T10:45:02.672Z,1000.68
2022-09-26T10:46:02.783Z,1001.09
2022-09-26T10:47:02.697Z,1001.01
2022-09-26T10:48:02.699Z,1000.95
2022-09-26T10:49:02.701Z,1000.89
2022-09-26T10:50:02.710Z,1000.55
2022-09-26T10:51:02.745Z,1000.87
2022-09-26T10:52:02.717Z,1000.92
2022-09-26T10:53:02.730Z,1000.65
2022-09-26T10:54:02.733Z,1000.62
2022-09-26T10:55:02.739Z,1000.50
2022-09-26T10:56:02.747Z,1000.46
2022-09-26T10:57:02.750Z,1000.44
2022-09-26T10:58:02.763Z,1000.44
2022-09-26T10:59:02.765Z,1000.51
2022-09-26T11:00:02.771Z,1000.57
2022-09-26T11:01:02.783Z,1000.50
2022-09-26T11:02:02.858Z,1000.50
2022-09-26T11:03:02.789Z,1000.54
2022-09-26T11:04:02.909Z,1000.38
2022-09-26T11:05:02.803Z,1000.44
2022-09-26T11:06:02.814Z,1000.37
2022-09-26T11:07:02.836Z,1000.37
2022-09-26T11:08:02.823Z,1000.40
2022-09-26T11:09:02.819Z,1000.36
2022-09-26T11:10:02.832Z,1000.17
2022-09-26T11:11:02.857Z,1000.28
2022-09-26T11:12:02.838Z,1000.32
2022-09-26T11:13:02.846Z,1000.38
2022-09-26T11:14:02.849Z,1000.27
2022-09-26T11:15:02.858Z,1000.19
2022-09-26T11:16:02.939Z,1000.20
2022-09-26T11:17:02.866Z,1000.22
2022-09-26T11:18:02.866Z,1000.19
2022-09-26T11:19:02.876Z,1000.20
2022-09-26T11:20:02.885Z,1000.17
2022-09-26T11:21:02.876Z,1000.18
2022-09-26T11:22:07.389Z,1000.11
2022-09-26T11:23:02.917Z,1000.11
2022-09-26T11:24:02.906Z,1000.06
2022-09-26T11:26:46.626Z,1000.05
2022-09-26T11:28:19.844Z,999.93
2022-09-26T11:28:46.636Z,999.92
2022-09-26T11:30:19.846Z,999.90
2022-09-26T11:32:30.370Z,999.93
2022-09-26T11:34:03.581Z,999.94
2022-09-26T11:34:30.374Z,999.90
2022-09-26T11:35:49.583Z,999.91
2022-09-26T11:36:30.383Z,999.95
2022-09-26T11:37:30.383Z,999.91
2022-09-26T11:38:30.417Z,999.97
2022-09-26T11:39:30.391Z,999.94
2022-09-26T11:40:30.476Z,999.93
2022-09-26T11:41:30.397Z,999.90
2022-09-26T11:42:30.397Z,999.87
2022-09-26T11:43:30.401Z,999.84
2022-09-26T11:44:30.406Z,1000.05
2022-09-26T11:45:33.667Z,999.91
2022-09-26T11:46:30.457Z,999.81
2022-09-26T11:47:30.411Z,999.80
2022-09-26T11:48:30.416Z,999.78
2022-09-26T11:49:30.420Z,999.75
2022-09-26T11:50:30.420Z,999.78
2022-09-26T11:51:30.419Z,999.82
2022-09-26T11:52:30.439Z,999.76
2022-09-26T11:53:30.422Z,999.84
2022-09-26T11:54:30.449Z,999.82
2022-09-26T11:55:30.433Z,999.69
2022-09-26T11:56:30.445Z,999.70
2022-09-26T11:57:30.436Z,999.64
2022-09-26T11:58:30.437Z,999.62
2022-09-26T11:59:30.436Z,999.68
2022-09-26T12:00:30.440Z,999.61
2022-09-26T12:01:30.439Z,999.68
2022-09-26T12:02:30.598Z,999.59
2022-09-26T12:03:30.653Z,999.53
2022-09-26T12:04:30.445Z,999.49
2022-09-26T12:05:30.449Z,999.52
2022-09-26T12:06:30.448Z,999.50
2022-09-26T12:07:30.450Z,999.49
2022-09-26T12:08:30.456Z,999.52
2022-09-26T12:09:30.454Z,999.52
2022-09-26T12:10:30.484Z,999.49
2022-09-26T12:11:30.456Z,999.50
2022-09-26T12:12:30.462Z,999.51
2022-09-26T12:13:30.458Z,999.51